createdAt,value
2023-03-31T00:02:24.683Z,29.50
2023-03-31T00:04:55.008Z,29.54
2023-03-31T00:07:25.140Z,29.55
2023-03-31T00:10:10.306Z,29.58
2023-03-31T00:12:48.023Z,29.61
2023-03-31T00:15:18.604Z,29.63
2023-03-31T00:17:49.080Z,29.66
2023-03-31T00:20:19.253Z,29.67
2023-03-31T00:22:49.500Z,29.69
2023-03-31T00:25:19.830Z,29.71
2023-03-31T00:27:51.783Z,29.72
2023-03-31T00:30:22.156Z,29.74
2023-03-31T00:32:52.860Z,29.76
2023-03-31T00:35:23.835Z,29.78
2023-03-31T00:37:55.457Z,29.79
2023-03-31T00:40:25.688Z,29.80
2023-03-31T00:42:55.914Z,29.82
2023-03-31T00:45:28.689Z,29.83
2023-03-31T00:48:05.759Z,29.84
2023-03-31T00:50:42.685Z,29.86
2023-03-31T00:53:15.416Z,29.90
2023-03-31T00:55:49.412Z,29.91
2023-03-31T00:58:24.375Z,29.90
2023-03-31T01:00:54.765Z,29.94
2023-03-31T01:03:26.782Z,29.95
2023-03-31T01:05:59.436Z,29.96
2023-03-31T01:08:30.400Z,29.98
2023-03-31T01:11:05.651Z,30.00
2023-03-31T01:13:40.042Z,30.01
2023-03-31T01:16:12.194Z,30.03
2023-03-31T01:18:47.779Z,30.05
2023-03-31T01:21:39.038Z,30.06
2023-03-31T01:24:11.984Z,30.09
2023-03-31T01:27:00.608Z,30.09
2023-03-31T01:29:42.859Z,30.13
2023-03-31T01:32:13.577Z,30.15
2023-03-31T01:35:02.148Z,30.15
2023-03-31T01:37:58.234Z,30.18
2023-03-31T01:40:28.434Z,30.21
2023-03-31T01:43:07.729Z,30.22
2023-03-31T01:45:37.896Z,30.24
2023-03-31T01:48:19.661Z,30.26
2023-03-31T01:51:00.801Z,30.28
2023-03-31T01:53:35.452Z,30.31
2023-03-31T01:56:12.120Z,30.33
2023-03-31T01:58:51.205Z,30.34
2023-03-31T02:01:22.411Z,30.37
2023-03-31T02:04:12.711Z,30.40
2023-03-31T02:06:45.242Z,30.42
2023-03-31T02:09:18.451Z,30.44
2023-03-31T02:11:50.126Z,30.46
2023-03-31T02:14:23.588Z,30.48
2023-03-31T02:16:59.734Z,30.50
2023-03-31T02:19:33.112Z,30.53
2023-03-31T02:22:05.112Z,30.55
2023-03-31T02:24:36.504Z,30.58
2023-03-31T02:27:10.073Z,30.59
2023-03-31T02:29:40.611Z,30.62
2023-03-31T02:32:14.950Z,30.64
2023-03-31T02:34:45.350Z,30.66
2023-03-31T02:37:15.875Z,30.68
2023-03-31T02:39:50.031Z,30.71
2023-03-31T02:42:21.022Z,30.72
2023-03-31T02:44:53.320Z,30.75
2023-03-31T02:47:23.829Z,30.78
2023-03-31T02:49:55.799Z,30.80
2023-03-31T02:52:35.074Z,30.82
2023-03-31T02:55:18.215Z,30.85
2023-03-31T02:57:48.728Z,30.87
2023-03-31T03:00:26.063Z,30.90
2023-03-31T03:03:07.088Z,30.92
2023-03-31T03:05:40.242Z,30.95
2023-03-31T03:08:38.346Z,30.99
2023-03-31T03:11:24.521Z,31.00
2023-03-31T03:14:02.700Z,31.02
2023-03-31T03:16:37.044Z,31.05
2023-03-31T03:19:08.346Z,31.08
2023-03-31T03:21:38.516Z,31.10
2023-03-31T03:24:08.807Z,31.12
2023-03-31T03:26:38.832Z,31.15
2023-03-31T03:29:09.209Z,31.19
2023-03-31T03:31:39.586Z,31.22
2023-03-31T03:34:11.135Z,31.24
2023-03-31T03:36:42.089Z,31.26
2023-03-31T03:39:12.160Z,31.28
2023-03-31T03:41:42.351Z,31.31
2023-03-31T03:44:12.363Z,31.34
2023-03-31T03:46:42.890Z,31.37
2023-03-31T03:49:13.543Z,31.38
2023-03-31T03:51:43.635Z,31.41
2023-03-31T03:54:13.933Z,31.43
2023-03-31T03:56:44.085Z,31.45
2023-03-31T03:59:14.436Z,31.49
2023-03-31T04:01:44.860Z,31.51
2023-03-31T04:04:14.897Z,31.54
2023-03-31T04:06:45.103Z,31.57
2023-03-31T04:09:15.673Z,31.58
2023-03-31T04:11:45.749Z,31.59
2023-03-31T04:14:15.882Z,31.61
2023-03-31T04:16:48.152Z,31.64
2023-03-31T04:19:19.249Z,31.67
2023-03-31T04:21:52.150Z,31.69
2023-03-31T04:24:23.207Z,31.72
2023-03-31T04:26:53.794Z,31.73
2023-03-31T04:29:28.075Z,31.75
2023-03-31T04:32:01.415Z,31.76
2023-03-31T04:34:38.040Z,31.79
2023-03-31T04:37:12.223Z,31.82
2023-03-31T04:39:42.910Z,31.85
2023-03-31T04:42:12.982Z,31.85
2023-03-31T04:44:43.112Z,31.87
2023-03-31T04:47:13.154Z,31.88
2023-03-31T04:49:43.331Z,31.89
2023-03-31T04:52:13.348Z,31.89
2023-03-31T04:54:43.420Z,31.91
2023-03-31T04:57:13.517Z,31.93
2023-03-31T04:59:43.588Z,31.94
2023-03-31T05:02:13.714Z,31.94
2023-03-31T05:04:43.790Z,31.96
2023-03-31T05:07:13.812Z,31.98
2023-03-31T05:09:44.042Z,31.99
2023-03-31T05:12:14.665Z,32.01
2023-03-31T05:14:44.754Z,32.02
2023-03-31T05:17:14.896Z,32.04
2023-03-31T05:19:45.005Z,32.07
2023-03-31T05:22:15.856Z,32.10
2023-03-31T05:24:45.886Z,32.12
2023-03-31T05:27:15.987Z,32.14
2023-03-31T05:29:46.097Z,32.17
2023-03-31T05:32:16.729Z,32.19
2023-03-31T05:34:48.866Z,32.21
2023-03-31T05:37:20.674Z,32.23
2023-03-31T05:39:51.067Z,32.25
2023-03-31T05:42:21.843Z,32.27
2023-03-31T05:44:51.976Z,32.30
2023-03-31T05:47:22.473Z,32.31
2023-03-31T05:49:52.682Z,32.34
2023-03-31T05:52:22.955Z,32.36
2023-03-31T05:54:53.198Z,32.39
2023-03-31T05:57:23.605Z,32.41
2023-03-31T05:59:53.759Z,32.44
2023-03-31T06:02:24.084Z,32.46
2023-03-31T06:04:54.674Z,32.49
2023-03-31T06:07:26.367Z,32.53
2023-03-31T06:09:57.007Z,32.57
2023-03-31T06:12:27.664Z,32.59
2023-03-31T06:14:57.737Z,32.62
2023-03-31T06:17:27.930Z,32.65
2023-03-31T06:19:58.270Z,32.68
2023-03-31T06:22:28.906Z,32.71
2023-03-31T06:24:59.100Z,32.74
2023-03-31T06:27:29.689Z,32.77
2023-03-31T06:29:59.710Z,32.81
2023-03-31T06:32:29.832Z,32.84
2023-03-31T06:34:59.972Z,32.87
2023-03-31T06:37:30.178Z,32.90
2023-03-31T06:40:00.396Z,32.94
2023-03-31T06:42:30.456Z,32.98
2023-03-31T06:45:00.671Z,33.03
2023-03-31T06:47:31.407Z,33.06
2023-03-31T06:50:01.743Z,33.10
2023-03-31T06:52:32.840Z,33.13
2023-03-31T06:55:03.259Z,33.18
2023-03-31T06:57:35.426Z,33.20
2023-03-31T07:00:07.039Z,33.10
2023-03-31T07:02:38.416Z,33.28
2023-03-31T07:05:08.968Z,33.31
2023-03-31T07:07:39.117Z,33.33
2023-03-31T07:10:09.477Z,33.35
2023-03-31T07:12:39.612Z,33.40
2023-03-31T07:15:09.914Z,33.41
2023-03-31T07:17:43.506Z,33.43
2023-03-31T07:20:17.527Z,33.47
2023-03-31T07:22:48.331Z,33.50
2023-03-31T07:25:19.356Z,33.52
2023-03-31T07:27:50.373Z,33.56
2023-03-31T07:30:21.583Z,33.59
2023-03-31T07:32:52.692Z,33.63
2023-03-31T07:35:24.392Z,33.66
2023-03-31T07:37:54.607Z,33.69
2023-03-31T07:40:26.852Z,33.71
2023-03-31T07:42:57.268Z,33.75
2023-03-31T07:45:28.281Z,33.77
2023-03-31T07:47:58.551Z,33.81
2023-03-31T07:50:29.413Z,33.85
2023-03-31T07:53:01.153Z,33.89
2023-03-31T07:55:31.859Z,33.91
2023-03-31T07:58:02.479Z,33.94
2023-03-31T08:00:33.056Z,33.97
2023-03-31T08:03:03.248Z,33.82
2023-03-31T08:05:33.687Z,34.03
2023-03-31T08:08:03.781Z,34.08
2023-03-31T08:10:33.881Z,34.11
2023-03-31T08:13:03.954Z,34.15
2023-03-31T08:15:34.017Z,34.18
2023-03-31T08:18:05.107Z,34.22
2023-03-31T08:20:35.188Z,34.24
2023-03-31T08:23:07.206Z,34.29
2023-03-31T08:25:37.616Z,34.35
2023-03-31T08:28:08.338Z,34.37
2023-03-31T08:30:42.490Z,34.42
2023-03-31T08:33:15.762Z,34.46
2023-03-31T08:35:46.025Z,34.50
2023-03-31T08:38:16.171Z,34.53
2023-03-31T08:40:46.341Z,34.56
2023-03-31T08:43:20.806Z,34.60
2023-03-31T08:45:51.741Z,34.63
2023-03-31T08:48:30.740Z,34.67
2023-03-31T08:51:05.593Z,34.70
2023-03-31T08:53:45.529Z,34.74
2023-03-31T08:56:21.000Z,34.80
2023-03-31T08:58:52.548Z,34.84
2023-03-31T09:01:52.196Z,34.85
2023-03-31T09:04:31.073Z,34.90
2023-03-31T09:07:19.474Z,34.94
2023-03-31T09:10:05.314Z,34.97
2023-03-31T09:12:42.093Z,35.01
2023-03-31T09:15:19.056Z,35.05
2023-03-31T09:17:52.930Z,35.08
2023-03-31T09:20:33.438Z,35.12
2023-03-31T09:23:07.128Z,35.18
2023-03-31T09:25:40.019Z,35.17
2023-03-31T09:28:21.645Z,35.21
2023-03-31T09:30:52.409Z,35.23
2023-03-31T09:33:33.426Z,35.25
2023-03-31T09:36:04.791Z,35.26
2023-03-31T09:38:35.217Z,35.28
2023-03-31T09:41:06.824Z,35.29
2023-03-31T09:43:37.141Z,35.29
2023-03-31T09:46:15.387Z,35.31
2023-03-31T09:48:52.181Z,35.30
2023-03-31T09:51:28.063Z,35.30
2023-03-31T09:54:00.892Z,35.30
2023-03-31T09:56:51.748Z,35.27
2023-03-31T09:59:31.727Z,35.27
2023-03-31T10:02:04.506Z,35.27
2023-03-31T10:04:36.510Z,35.24
2023-03-31T10:07:06.938Z,35.24
2023-03-31T10:09:40.233Z,35.23
2023-03-31T10:12:17.705Z,35.21
2023-03-31T10:14:51.981Z,35.21
2023-03-31T10:17:24.037Z,35.17
2023-03-31T10:19:55.928Z,35.16
2023-03-31T10:22:26.143Z,35.16
2023-03-31T10:24:56.745Z,35.13
2023-03-31T10:27:28.692Z,35.12
2023-03-31T10:30:06.830Z,35.09
2023-03-31T10:32:42.272Z,35.08
2023-03-31T10:35:26.704Z,35.05
2023-03-31T10:37:58.761Z,35.01
2023-03-31T10:40:30.013Z,35.01
2023-03-31T10:43:12.402Z,34.97
2023-03-31T10:45:49.207Z,34.94
2023-03-31T10:48:31.464Z,34.91
2023-03-31T10:51:17.000Z,34.87
2023-03-31T10:53:51.119Z,34.86
2023-03-31T10:56:30.194Z,34.83
2023-03-31T10:59:07.744Z,34.81
2023-03-31T11:01:57.776Z,34.80
2023-03-31T11:04:48.210Z,34.75
2023-03-31T11:07:34.988Z,34.73
2023-03-31T11:10:23.567Z,34.69
2023-03-31T11:13:09.965Z,34.67
2023-03-31T11:15:40.127Z,34.63
2023-03-31T11:18:19.858Z,34.61
2023-03-31T11:20:56.279Z,34.57
2023-03-31T11:23:46.369Z,34.54
2023-03-31T11:26:17.090Z,34.51
2023-03-31T11:29:01.333Z,34.49
2023-03-31T11:31:35.658Z,34.45
2023-03-31T11:34:34.679Z,34.41
2023-03-31T11:37:21.050Z,34.37
2023-03-31T11:39:57.040Z,34.32
2023-03-31T11:42:34.598Z,34.32
2023-03-31T11:45:15.863Z,34.28
2023-03-31T11:47:48.480Z,34.23
2023-03-31T11:50:21.359Z,34.21
2023-03-31T11:53:14.258Z,34.18
2023-03-31T11:55:45.198Z,34.15
2023-03-31T11:58:15.298Z,34.11
2023-03-31T12:01:03.161Z,34.08
2023-03-31T12:03:51.917Z,34.05
2023-03-31T12:06:24.116Z,34.01
2023-03-31T12:08:54.417Z,33.97
2023-03-31T12:11:42.909Z,33.96
2023-03-31T12:14:28.115Z,33.93
2023-03-31T12:17:02.523Z,33.90
2023-03-31T12:19:47.603Z,33.88
2023-03-31T12:22:23.668Z,33.84
2023-03-31T12:24:54.575Z,33.82
2023-03-31T12:27:29.314Z,33.81
2023-03-31T12:30:02.177Z,33.75
2023-03-31T12:32:34.861Z,33.73
2023-03-31T12:35:12.881Z,33.70
2023-03-31T12:37:49.205Z,33.69
2023-03-31T12:40:19.344Z,33.66
2023-03-31T12:43:06.805Z,33.64
2023-03-31T12:45:52.603Z,33.60
2023-03-31T12:48:28.712Z,33.58
2023-03-31T12:50:58.755Z,33.54
2023-03-31T12:53:37.845Z,33.53
2023-03-31T12:56:08.356Z,33.50
2023-03-31T12:58:38.672Z,33.49
2023-03-31T13:01:15.977Z,33.44
2023-03-31T13:03:46.858Z,33.43
2023-03-31T13:06:32.627Z,33.41
2023-03-31T13:09:09.846Z,33.36
2023-03-31T13:11:40.034Z,33.35
2023-03-31T13:14:19.385Z,33.31
2023-03-31T13:16:52.110Z,33.28
2023-03-31T13:19:32.724Z,33.26
2023-03-31T13:22:04.681Z,33.24
2023-03-31T13:24:36.467Z,33.20
2023-03-31T13:27:25.100Z,33.19
2023-03-31T13:29:55.337Z,33.18
2023-03-31T13:32:27.636Z,33.15
2023-03-31T13:35:05.092Z,33.13
2023-03-31T13:37:46.390Z,33.10
2023-03-31T13:40:31.975Z,33.09
2023-03-31T13:43:28.686Z,33.06
2023-03-31T13:46:11.908Z,33.05
2023-03-31T13:48:57.859Z,33.02
2023-03-31T13:51:34.377Z,33.00
2023-03-31T13:54:05.078Z,32.80
2023-03-31T13:56:41.036Z,32.96
2023-03-31T13:59:22.489Z,32.94
2023-03-31T14:02:11.624Z,32.92
2023-03-31T14:04:49.790Z,32.90
2023-03-31T14:07:23.577Z,32.90
2023-03-31T14:09:55.550Z,32.87
2023-03-31T14:12:40.007Z,32.87
2023-03-31T14:15:32.924Z,32.84
2023-03-31T14:18:04.188Z,32.83
2023-03-31T14:20:43.334Z,32.82
2023-03-31T14:23:26.121Z,32.80
2023-03-31T14:26:09.185Z,32.77
2023-03-31T14:28:39.950Z,32.76
2023-03-31T14:31:24.505Z,32.75
2023-03-31T14:34:14.596Z,32.74
2023-03-31T14:37:11.400Z,32.72
2023-03-31T14:40:13.555Z,32.70
2023-03-31T14:42:51.002Z,32.68
2023-03-31T14:45:26.794Z,32.67
2023-03-31T14:48:01.263Z,32.66
2023-03-31T14:50:33.991Z,32.64
2023-03-31T14:53:06.205Z,32.63
2023-03-31T14:55:54.444Z,32.62
2023-03-31T14:58:30.417Z,32.60
2023-03-31T15:01:01.471Z,32.60
2023-03-31T15:03:32.172Z,32.59
2023-03-31T15:06:03.869Z,32.59
2023-03-31T15:08:35.804Z,32.57
2023-03-31T15:11:13.129Z,32.55
2023-03-31T15:14:00.562Z,32.55
2023-03-31T15:16:45.800Z,32.53
2023-03-31T15:19:24.604Z,32.49
2023-03-31T15:21:57.952Z,32.50
2023-03-31T15:24:28.331Z,32.49
2023-03-31T15:27:04.882Z,32.46
2023-03-31T15:29:49.960Z,32.46
2023-03-31T15:32:20.411Z,32.45
2023-03-31T15:34:52.679Z,32.44
2023-03-31T15:37:29.250Z,32.43
2023-03-31T15:40:00.382Z,32.43
2023-03-31T15:42:30.962Z,32.42
2023-03-31T15:45:19.860Z,32.41
2023-03-31T15:47:55.383Z,32.40
2023-03-31T15:50:26.298Z,32.40
2023-03-31T15:52:59.405Z,32.37
2023-03-31T15:58:18.289Z,32.36
2023-03-31T16:00:53.792Z,32.35
2023-03-31T16:03:31.767Z,32.35
2023-03-31T16:06:04.281Z,32.34
2023-03-31T16:08:34.770Z,32.33
2023-03-31T16:11:10.066Z,32.34
2023-03-31T16:13:42.610Z,32.33
2023-03-31T16:16:15.332Z,32.33
2023-03-31T16:18:51.612Z,32.30
2023-03-31T16:21:24.701Z,32.32
2023-03-31T16:23:57.777Z,32.31
2023-03-31T16:26:29.841Z,32.30
2023-03-31T16:29:02.577Z,32.30
2023-03-31T16:31:36.096Z,32.30
2023-03-31T16:34:08.336Z,32.29
2023-03-31T16:36:50.896Z,32.27
2023-03-31T16:39:21.034Z,32.27
2023-03-31T16:41:51.353Z,32.26
2023-03-31T16:44:21.863Z,32.25
2023-03-31T16:46:52.456Z,32.25
2023-03-31T16:49:22.855Z,32.24
2023-03-31T16:51:54.078Z,32.24
2023-03-31T16:54:24.273Z,32.22
2023-03-31T16:56:54.727Z,32.21
2023-03-31T16:59:25.196Z,32.21
2023-03-31T17:01:55.435Z,32.18
2023-03-31T17:04:25.716Z,32.17
2023-03-31T17:06:55.944Z,32.17
2023-03-31T17:09:26.105Z,32.15
2023-03-31T17:11:56.430Z,32.15
2023-03-31T17:14:26.702Z,32.13
2023-03-31T17:16:56.922Z,32.12
2023-03-31T17:19:29.232Z,32.11
2023-03-31T17:22:03.260Z,32.10
2023-03-31T17:24:33.323Z,32.08
2023-03-31T17:27:03.640Z,32.07
2023-03-31T17:29:33.917Z,32.05
2023-03-31T17:32:04.660Z,32.04
2023-03-31T17:34:34.841Z,32.04
2023-03-31T17:37:05.780Z,32.03
2023-03-31T17:39:36.016Z,32.03
2023-03-31T17:42:06.747Z,32.00
2023-03-31T17:44:36.927Z,31.99
2023-03-31T17:47:07.247Z,31.98
2023-03-31T17:49:37.340Z,31.97
2023-03-31T17:52:07.497Z,31.96
2023-03-31T17:54:37.743Z,31.95
2023-03-31T17:57:08.220Z,31.94
2023-03-31T17:59:39.031Z,31.94
2023-03-31T18:02:09.557Z,31.92
2023-03-31T18:04:39.785Z,31.92
2023-03-31T18:07:09.844Z,31.90
2023-03-31T18:09:40.978Z,31.88
2023-03-31T18:12:11.186Z,31.87
2023-03-31T18:14:41.877Z,31.87
2023-03-31T18:17:16.182Z,31.86
2023-03-31T18:19:46.459Z,31.85
2023-03-31T18:22:16.567Z,31.82
2023-03-31T18:24:47.241Z,31.83
2023-03-31T18:27:17.466Z,31.82
2023-03-31T18:29:47.543Z,31.80
2023-03-31T18:32:17.832Z,31.80
2023-03-31T18:34:48.586Z,31.78
2023-03-31T18:37:18.595Z,31.77
2023-03-31T18:39:49.176Z,31.77
2023-03-31T18:42:21.155Z,31.76
2023-03-31T18:44:51.358Z,31.74
2023-03-31T18:47:21.906Z,31.74
2023-03-31T18:49:55.276Z,31.71
2023-03-31T18:52:25.538Z,31.70
2023-03-31T18:54:55.639Z,31.70
2023-03-31T18:57:25.775Z,31.68
2023-03-31T18:59:55.934Z,31.68
2023-03-31T19:02:26.176Z,31.68
2023-03-31T19:04:56.328Z,31.66
2023-03-31T19:07:26.379Z,31.65
2023-03-31T19:09:56.652Z,31.64
2023-03-31T19:12:27.096Z,31.64
2023-03-31T19:14:57.406Z,31.63
2023-03-31T19:17:27.764Z,31.60
2023-03-31T19:19:58.203Z,31.60
2023-03-31T19:22:31.186Z,31.59
2023-03-31T19:25:01.749Z,31.58
2023-03-31T19:27:32.959Z,31.56
2023-03-31T19:30:03.586Z,31.56
2023-03-31T19:32:33.617Z,31.55
2023-03-31T19:35:03.743Z,31.55
2023-03-31T19:37:33.835Z,31.54
2023-03-31T19:40:04.718Z,31.53
2023-03-31T19:42:35.063Z,31.52
2023-03-31T19:45:05.301Z,31.51
2023-03-31T19:47:35.882Z,31.50
2023-03-31T19:50:06.277Z,31.49
2023-03-31T19:52:37.528Z,31.47
2023-03-31T19:55:07.720Z,31.47
2023-03-31T19:57:38.031Z,31.46
2023-03-31T20:00:09.425Z,31.45
2023-03-31T20:02:40.030Z,31.45
2023-03-31T20:05:10.595Z,31.44
2023-03-31T20:07:40.621Z,31.43
2023-03-31T20:10:13.072Z,31.43
2023-03-31T20:12:43.523Z,31.41
2023-03-31T20:15:13.526Z,31.41
2023-03-31T20:17:43.602Z,31.41
2023-03-31T20:20:14.195Z,31.38
2023-03-31T20:22:45.040Z,31.38
2023-03-31T20:25:15.689Z,31.38
2023-03-31T20:27:45.760Z,31.36
2023-03-31T20:30:16.465Z,31.36
2023-03-31T20:32:46.598Z,31.36
2023-03-31T20:35:16.701Z,31.34
2023-03-31T20:37:46.745Z,31.34
2023-03-31T20:40:17.376Z,31.33
2023-03-31T20:42:47.894Z,31.32
2023-03-31T20:45:17.964Z,31.32
2023-03-31T20:47:48.800Z,31.31
2023-03-31T20:50:19.030Z,31.31
2023-03-31T20:52:49.520Z,31.30
2023-03-31T20:55:19.625Z,31.29
2023-03-31T20:57:49.728Z,31.29
2023-03-31T21:00:20.009Z,31.28
2023-03-31T21:02:49.979Z,31.27
2023-03-31T21:05:20.058Z,31.26
2023-03-31T21:07:50.774Z,31.25
2023-03-31T21:10:20.872Z,31.25
2023-03-31T21:12:51.299Z,31.25
2023-03-31T21:15:21.742Z,31.23
2023-03-31T21:17:51.881Z,31.23
2023-03-31T21:20:22.006Z,31.23
2023-03-31T21:22:52.072Z,31.22
2023-03-31T21:25:22.297Z,31.21
2023-03-31T21:27:52.982Z,31.21
2023-03-31T21:30:23.514Z,31.22
2023-03-31T21:32:54.235Z,31.20
2023-03-31T21:35:24.483Z,31.19
2023-03-31T21:37:54.754Z,31.17
2023-03-31T21:40:25.273Z,31.17
2023-03-31T21:42:55.384Z,31.15
2023-03-31T21:45:28.684Z,31.16
2023-03-31T21:47:59.439Z,31.15
2023-03-31T21:50:29.805Z,31.14
2023-03-31T21:53:00.963Z,31.14
2023-03-31T21:55:31.064Z,31.12
2023-03-31T21:58:02.035Z,31.13
2023-03-31T22:00:32.803Z,31.12
2023-03-31T22:03:22.180Z,31.11
2023-03-31T22:05:54.130Z,31.12
2023-03-31T22:08:24.164Z,31.11
2023-03-31T22:10:55.115Z,31.11
2023-03-31T22:13:25.752Z,31.11
2023-03-31T22:15:56.180Z,31.10
2023-03-31T22:18:26.877Z,31.10
2023-03-31T22:20:58.344Z,31.09
2023-03-31T22:23:29.111Z,31.09
2023-03-31T22:25:59.131Z,31.08
2023-03-31T22:28:30.303Z,31.08
2023-03-31T22:31:00.802Z,31.08
2023-03-31T22:33:30.851Z,31.07
2023-03-31T22:36:00.975Z,31.08
2023-03-31T22:38:31.897Z,31.06
2023-03-31T22:41:02.950Z,31.06
2023-03-31T22:43:34.003Z,31.06
2023-03-31T22:46:05.292Z,31.05
2023-03-31T22:48:35.992Z,31.04
2023-03-31T22:51:10.297Z,31.05
2023-03-31T22:53:40.389Z,31.02
2023-03-31T22:56:12.130Z,31.04
2023-03-31T22:58:42.208Z,31.03
2023-03-31T23:01:16.855Z,31.03
2023-03-31T23:03:48.165Z,30.98
2023-03-31T23:06:18.768Z,30.93
2023-03-31T23:08:50.381Z,30.89
2023-03-31T23:11:20.837Z,30.83
2023-03-31T23:13:50.951Z,30.81
2023-03-31T23:16:23.147Z,30.77
2023-03-31T23:18:54.701Z,30.73
2023-03-31T23:21:26.146Z,30.72
2023-03-31T23:23:57.899Z,30.72
2023-03-31T23:26:29.213Z,30.72
2023-03-31T23:28:59.853Z,30.72
2023-03-31T23:31:30.983Z,30.71
2023-03-31T23:34:01.362Z,30.71
2023-03-31T23:36:32.538Z,30.69
2023-03-31T23:39:02.548Z,30.68
2023-03-31T23:41:33.184Z,30.69
2023-03-31T23:44:03.629Z,30.70
2023-03-31T23:46:34.968Z,30.69
2023-03-31T23:49:06.268Z,30.70
2023-03-31T23:51:36.350Z,30.70
2023-03-31T23:54:06.349Z,30.71
2023-03-31T23:56:36.416Z,30.70
2023-03-31T23:59:06.443Z,30.72
